createdAt,value
2023-03-16T00:01:07.176Z,100360.91
2023-03-16T00:03:38.017Z,100360.91
2023-03-16T00:06:07.267Z,100367.59
2023-03-16T00:08:37.161Z,100358.88
2023-03-16T00:11:07.461Z,100352.66
2023-03-16T00:13:36.068Z,100355.13
2023-03-16T00:16:08.013Z,100348.91
2023-03-16T00:18:39.097Z,100344.41
2023-03-16T00:21:08.559Z,100352.03
2023-03-16T00:23:37.881Z,100347.59
2023-03-16T00:26:10.422Z,100350.94
2023-03-16T00:28:39.068Z,100349.94
2023-03-16T00:31:12.877Z,100350.81
2023-03-16T00:33:43.868Z,100340.47
2023-03-16T00:36:13.407Z,100337.91
2023-03-16T00:38:45.210Z,100345.50
2023-03-16T00:41:16.256Z,100337.78
2023-03-16T00:43:45.663Z,100350.53
2023-03-16T00:46:18.935Z,100340.94
2023-03-16T00:48:48.957Z,100348.56
2023-03-16T00:51:19.881Z,100346.75
2023-03-16T00:53:48.933Z,100343.19
2023-03-16T00:56:18.432Z,100344.06
2023-03-16T00:58:47.247Z,100327.56
2023-03-16T01:01:20.175Z,100329.13
2023-03-16T01:03:49.742Z,100341.00
2023-03-16T01:06:20.745Z,100339.22
2023-03-16T01:08:50.555Z,100339.13
2023-03-16T01:11:21.936Z,100352.75
2023-03-16T01:13:54.283Z,100355.31
2023-03-16T01:16:24.288Z,100357.00
2023-03-16T01:18:53.500Z,100349.28
2023-03-16T01:21:22.894Z,100343.34
2023-03-16T01:23:53.807Z,100328.72
2023-03-16T01:26:23.137Z,100332.28
2023-03-16T01:28:52.403Z,100316.88
2023-03-16T01:31:21.124Z,100324.69
2023-03-16T01:33:51.307Z,100316.88
2023-03-16T01:36:23.839Z,100313.41
2023-03-16T01:39:00.095Z,100302.22
2023-03-16T01:41:32.739Z,100298.75
2023-03-16T01:44:01.545Z,100303.91
2023-03-16T01:46:31.586Z,100295.31
2023-03-16T01:49:12.417Z,100284.94
2023-03-16T01:51:47.527Z,100276.41
2023-03-16T01:54:24.980Z,100273.06
2023-03-16T01:57:01.305Z,100273.94
2023-03-16T01:59:34.716Z,100280.78
2023-03-16T02:02:04.757Z,100288.41
2023-03-16T02:04:47.758Z,100289.38
2023-03-16T02:07:22.708Z,100281.66
2023-03-16T02:09:56.365Z,100268.03
2023-03-16T02:12:25.645Z,100263.56
2023-03-16T02:14:56.949Z,100263.66
2023-03-16T02:17:29.717Z,100262.88
2023-03-16T02:20:16.938Z,100255.19
2023-03-16T02:22:49.340Z,100250.81
2023-03-16T02:25:19.946Z,100249.16
2023-03-16T02:28:02.316Z,100241.31
2023-03-16T02:30:34.207Z,100248.25
2023-03-16T02:33:06.166Z,100244.00
2023-03-16T02:35:35.105Z,100237.19
2023-03-16T02:38:05.048Z,100237.19
2023-03-16T02:40:39.362Z,100230.25
2023-03-16T02:43:16.732Z,100237.97
2023-03-16T02:45:54.579Z,100229.38
2023-03-16T02:48:32.792Z,100236.19
2023-03-16T02:51:01.466Z,100235.28
2023-03-16T02:53:30.085Z,100228.41
2023-03-16T02:56:02.840Z,100222.34
2023-03-16T02:58:33.763Z,100227.50
2023-03-16T03:01:07.548Z,100226.50
2023-03-16T03:03:37.271Z,100239.34
2023-03-16T03:06:07.675Z,100228.16
2023-03-16T03:08:38.884Z,100217.09
2023-03-16T03:11:07.802Z,100211.06
2023-03-16T03:13:38.284Z,100208.50
2023-03-16T03:16:12.998Z,100212.75
2023-03-16T03:18:42.550Z,100200.59
2023-03-16T03:21:11.020Z,100192.91
2023-03-16T03:23:39.407Z,100207.41
2023-03-16T03:26:09.368Z,100210.66
2023-03-16T03:28:37.804Z,100200.38
2023-03-16T03:31:07.119Z,100206.31
2023-03-16T03:33:36.913Z,100196.03
2023-03-16T03:36:06.834Z,100204.53
2023-03-16T03:38:38.492Z,100190.88
2023-03-16T03:41:09.146Z,100191.66
2023-03-16T03:43:40.005Z,100185.69
2023-03-16T03:46:14.316Z,100190.72
2023-03-16T03:48:44.815Z,100180.44
2023-03-16T03:51:13.321Z,100182.00
2023-03-16T03:54:00.687Z,100195.72
2023-03-16T03:56:45.158Z,100198.31
2023-03-16T03:59:17.340Z,100190.47
2023-03-16T04:02:01.100Z,100177.44
2023-03-16T04:04:42.298Z,100180.81
2023-03-16T04:07:14.188Z,100180.03
2023-03-16T04:09:44.364Z,100180.03
2023-03-16T04:12:22.820Z,100184.38
2023-03-16T04:14:52.013Z,100181.81
2023-03-16T04:17:21.754Z,100178.22
2023-03-16T04:19:53.077Z,100177.44
2023-03-16T04:22:23.190Z,100164.59
2023-03-16T04:24:53.379Z,100152.53
2023-03-16T04:27:23.225Z,100149.19
2023-03-16T04:29:56.036Z,100151.75
2023-03-16T04:32:26.364Z,100149.97
2023-03-16T04:34:56.921Z,100148.28
2023-03-16T04:37:35.863Z,100150.84
2023-03-16T04:40:15.666Z,100144.03
2023-03-16T04:42:49.151Z,100148.28
2023-03-16T04:45:21.067Z,100141.38
2023-03-16T04:47:52.919Z,100148.97
2023-03-16T04:50:23.928Z,100130.78
2023-03-16T04:52:56.193Z,100130.69
2023-03-16T04:55:25.226Z,100130.69
2023-03-16T04:57:54.356Z,100118.63
2023-03-16T05:00:24.886Z,100133.19
2023-03-16T05:03:02.789Z,100122.91
2023-03-16T05:05:33.015Z,100129.78
2023-03-16T05:08:02.341Z,100134.94
2023-03-16T05:10:35.551Z,100133.97
2023-03-16T05:13:04.635Z,100130.50
2023-03-16T05:15:34.408Z,100134.75
2023-03-16T05:18:25.824Z,100131.88
2023-03-16T05:20:57.936Z,100125.16
2023-03-16T05:23:33.194Z,100127.72
2023-03-16T05:26:05.348Z,100127.63
2023-03-16T05:28:36.975Z,100129.97
2023-03-16T05:31:08.785Z,100128.19
2023-03-16T05:33:42.709Z,100120.41
2023-03-16T05:36:17.554Z,100123.06
2023-03-16T05:38:48.774Z,100118.72
2023-03-16T05:41:31.371Z,100127.31
2023-03-16T05:44:22.713Z,100130.75
2023-03-16T05:47:14.349Z,100128.19
2023-03-16T05:49:47.216Z,100123.16
2023-03-16T05:52:26.411Z,100118.94
2023-03-16T05:54:56.980Z,100132.56
2023-03-16T05:57:25.667Z,100137.91
2023-03-16T05:59:54.584Z,100128.50
2023-03-16T06:02:24.573Z,100142.22
2023-03-16T06:04:53.366Z,100140.56
2023-03-16T06:07:22.129Z,100143.13
2023-03-16T06:09:54.104Z,100132.84
2023-03-16T06:12:22.551Z,100132.06
2023-03-16T06:14:51.639Z,100137.09
2023-03-16T06:17:20.088Z,100132.97
2023-03-16T06:19:49.348Z,100128.72
2023-03-16T06:22:20.528Z,100129.59
2023-03-16T06:24:49.022Z,100127.22
2023-03-16T06:27:21.394Z,100132.34
2023-03-16T06:30:07.054Z,100127.16
2023-03-16T06:32:35.758Z,100125.47
2023-03-16T06:35:05.148Z,100131.47
2023-03-16T06:37:34.630Z,100128.91
2023-03-16T06:40:11.337Z,100119.50
2023-03-16T06:42:41.480Z,100123.88
2023-03-16T06:45:16.548Z,100127.34
2023-03-16T06:47:45.632Z,100136.72
2023-03-16T06:50:14.547Z,100134.25
2023-03-16T06:52:42.934Z,100138.69
2023-03-16T06:55:12.890Z,100136.22
2023-03-16T06:57:46.308Z,100137.13
2023-03-16T07:00:16.990Z,100126.84
2023-03-16T07:02:45.356Z,100132.97
2023-03-16T07:05:15.800Z,100140.88
2023-03-16T07:07:45.586Z,100135.06
2023-03-16T07:10:17.456Z,100141.28
2023-03-16T07:12:48.121Z,100130.31
2023-03-16T07:15:16.542Z,100136.34
2023-03-16T07:17:45.432Z,100135.63
2023-03-16T07:20:14.864Z,100138.31
2023-03-16T07:22:44.816Z,100131.59
2023-03-16T07:25:15.035Z,100133.47
2023-03-16T07:27:50.765Z,100135.16
2023-03-16T07:30:25.627Z,100143.84
2023-03-16T07:32:54.869Z,100143.06
2023-03-16T07:35:26.665Z,100135.53
2023-03-16T07:37:56.067Z,100135.75
2023-03-16T07:40:26.070Z,100137.50
2023-03-16T07:43:00.874Z,100133.47
2023-03-16T07:45:36.921Z,100137.00
2023-03-16T07:48:06.599Z,100138.13
2023-03-16T07:50:46.332Z,100136.50
2023-03-16T07:53:15.595Z,100141.88
2023-03-16T07:55:46.910Z,100152.34
2023-03-16T07:58:17.216Z,100148.28
2023-03-16T08:00:45.753Z,100144.13
2023-03-16T08:03:14.227Z,100146.91
2023-03-16T08:05:43.178Z,100143.59
2023-03-16T08:08:16.510Z,100143.81
2023-03-16T08:10:45.398Z,100136.28
2023-03-16T08:13:18.894Z,100141.81
2023-03-16T08:15:48.973Z,100146.28
2023-03-16T08:18:26.669Z,100140.41
2023-03-16T08:20:55.791Z,100137.25
2023-03-16T08:23:25.085Z,100133.09
2023-03-16T08:25:55.130Z,100128.94
2023-03-16T08:28:26.540Z,100127.34
2023-03-16T08:30:58.632Z,100124.84
2023-03-16T08:33:48.557Z,100116.34
2023-03-16T08:36:21.024Z,100124.28
2023-03-16T08:39:05.919Z,100123.66
2023-03-16T08:41:40.939Z,100118.69
2023-03-16T08:44:20.226Z,100128.28
2023-03-16T08:46:49.140Z,100132.75
2023-03-16T08:49:17.530Z,100135.63
2023-03-16T08:51:46.577Z,100124.34
2023-03-16T08:54:15.978Z,100123.72
2023-03-16T08:56:44.669Z,100122.94
2023-03-16T08:59:27.092Z,100121.34
2023-03-16T09:02:00.467Z,100131.75
2023-03-16T09:04:29.964Z,100129.25
2023-03-16T09:07:08.519Z,100133.72
2023-03-16T09:09:37.646Z,100138.84
2023-03-16T09:12:08.639Z,100144.09
2023-03-16T09:14:38.555Z,100145.06
2023-03-16T09:17:08.992Z,100143.38
2023-03-16T09:19:50.517Z,100140.19
2023-03-16T09:22:20.087Z,100142.97
2023-03-16T09:24:49.639Z,100141.38
2023-03-16T09:27:18.708Z,100151.84
2023-03-16T09:29:47.823Z,100149.28
2023-03-16T09:32:17.847Z,100149.38
2023-03-16T09:34:46.466Z,100148.66
2023-03-16T09:37:16.360Z,100155.59
2023-03-16T09:39:45.947Z,100148.06
2023-03-16T09:42:21.759Z,100147.34
2023-03-16T09:45:05.836Z,100149.13
2023-03-16T09:47:37.201Z,100153.50
2023-03-16T09:50:09.949Z,100147.72
2023-03-16T09:52:56.439Z,100145.34
2023-03-16T09:55:32.093Z,100140.34
2023-03-16T09:58:02.023Z,100119.13
2023-03-16T10:00:35.543Z,100123.75
2023-03-16T10:03:18.919Z,100125.00
2023-03-16T10:05:50.888Z,100127.84
2023-03-16T10:08:25.697Z,100129.00
2023-03-16T10:11:19.052Z,100111.25
2023-03-16T10:13:52.778Z,100119.13
2023-03-16T10:16:28.062Z,100112.50
2023-03-16T10:19:04.844Z,100119.69
2023-03-16T10:21:41.070Z,100113.00
2023-03-16T10:24:20.000Z,100110.69
2023-03-16T10:26:56.438Z,100113.47
2023-03-16T10:29:25.097Z,100114.41
2023-03-16T10:31:56.042Z,100097.50
2023-03-16T10:34:26.255Z,100106.34
2023-03-16T10:36:56.850Z,100106.59
2023-03-16T10:39:25.283Z,100111.91
2023-03-16T10:41:58.432Z,100113.00
2023-03-16T10:44:29.888Z,100114.84
2023-03-16T10:47:04.910Z,100116.00
2023-03-16T10:49:41.893Z,100105.88
2023-03-16T10:52:17.254Z,100102.50
2023-03-16T10:54:51.538Z,100105.22
2023-03-16T10:57:26.599Z,100101.06
2023-03-16T10:59:57.662Z,100094.22
2023-03-16T11:02:34.428Z,100084.84
2023-03-16T11:05:17.428Z,100076.41
2023-03-16T11:07:51.249Z,100055.91
2023-03-16T11:10:36.233Z,100055.13
2023-03-16T11:13:15.944Z,100055.13
2023-03-16T11:15:50.564Z,100043.00
2023-03-16T11:18:31.768Z,100043.91
2023-03-16T11:21:08.454Z,100037.84
2023-03-16T11:23:42.208Z,100040.53
2023-03-16T11:26:24.153Z,100026.72
2023-03-16T11:29:02.178Z,100028.59
2023-03-16T11:31:42.809Z,100041.59
2023-03-16T11:34:19.413Z,100029.66
2023-03-16T11:36:56.419Z,100015.06
2023-03-16T11:39:37.668Z,100022.97
2023-03-16T11:42:29.109Z,100015.38
2023-03-16T11:45:05.669Z,100008.69
2023-03-16T11:48:06.385Z,100005.53
2023-03-16T11:50:49.725Z,99997.19
2023-03-16T11:53:34.247Z,99988.06
2023-03-16T11:56:17.452Z,99995.28
2023-03-16T11:59:02.292Z,99988.84
2023-03-16T12:01:59.821Z,99973.75
2023-03-16T12:04:57.540Z,99980.19
2023-03-16T12:07:44.821Z,99981.41
2023-03-16T12:10:27.155Z,99976.53
2023-03-16T12:13:11.006Z,99957.97
2023-03-16T12:15:44.977Z,99948.69
2023-03-16T12:18:19.184Z,99952.56
2023-03-16T12:20:58.271Z,99937.34
2023-03-16T12:23:32.598Z,99945.31
2023-03-16T12:26:04.595Z,99935.28
2023-03-16T12:28:34.363Z,99928.66
2023-03-16T12:31:14.237Z,99912.53
2023-03-16T12:34:08.305Z,99917.13
2023-03-16T12:37:03.422Z,99907.88
2023-03-16T12:40:06.327Z,99900.25
2023-03-16T12:43:01.489Z,99899.53
2023-03-16T12:45:41.201Z,99893.63
2023-03-16T12:48:27.349Z,99886.00
2023-03-16T12:50:59.138Z,99881.81
2023-03-16T12:53:44.042Z,99897.44
2023-03-16T12:56:16.373Z,99890.56
2023-03-16T12:58:49.288Z,99875.94
2023-03-16T13:01:21.065Z,99875.13
2023-03-16T13:03:51.863Z,99870.84
2023-03-16T13:06:25.116Z,99872.69
2023-03-16T13:08:59.758Z,99855.38
2023-03-16T13:11:29.903Z,99860.72
2023-03-16T13:14:12.895Z,99859.91
2023-03-16T13:16:42.046Z,99853.03
2023-03-16T13:19:37.892Z,99849.56
2023-03-16T13:22:28.611Z,99845.31
2023-03-16T13:25:14.275Z,99842.81
2023-03-16T13:27:45.841Z,99834.31
2023-03-16T13:30:23.724Z,99822.31
2023-03-16T13:32:56.328Z,99822.47
2023-03-16T13:35:31.781Z,99820.91
2023-03-16T13:38:06.749Z,99834.84
2023-03-16T13:40:38.051Z,99834.13
2023-03-16T13:43:06.756Z,99817.84
2023-03-16T13:45:39.978Z,99812.97
2023-03-16T13:48:12.407Z,99816.63
2023-03-16T13:50:42.463Z,99797.84
2023-03-16T13:53:19.082Z,99801.66
2023-03-16T13:55:49.949Z,99786.38
2023-03-16T13:58:25.939Z,99788.28
2023-03-16T14:01:00.795Z,99772.19
2023-03-16T14:03:36.080Z,99766.25
2023-03-16T14:06:06.374Z,99768.13
2023-03-16T14:08:35.647Z,99765.63
2023-03-16T14:11:04.622Z,99758.00
2023-03-16T14:13:38.360Z,99753.03
2023-03-16T14:16:16.675Z,99751.44
2023-03-16T14:18:48.205Z,99755.84
2023-03-16T14:21:20.949Z,99748.13
2023-03-16T14:23:55.284Z,99745.63
2023-03-16T14:26:24.132Z,99725.78
2023-03-16T14:28:59.766Z,99718.16
2023-03-16T14:31:38.632Z,99708.72
2023-03-16T14:34:22.577Z,99706.13
2023-03-16T14:36:51.215Z,99709.59
2023-03-16T14:39:22.853Z,99708.00
2023-03-16T14:41:54.586Z,99706.38
2023-03-16T14:44:26.589Z,99709.09
2023-03-16T14:46:57.861Z,99712.53
2023-03-16T14:49:30.976Z,99697.06
2023-03-16T14:52:02.585Z,99687.59
2023-03-16T14:54:31.877Z,99693.66
2023-03-16T14:57:03.840Z,99690.25
2023-03-16T14:59:32.630Z,99679.91
2023-03-16T15:02:04.495Z,99677.38
2023-03-16T15:04:35.346Z,99674.72
2023-03-16T15:07:20.278Z,99685.16
2023-03-16T15:09:49.614Z,99670.47
2023-03-16T15:12:20.868Z,99672.22
2023-03-16T15:15:07.487Z,99663.56
2023-03-16T15:17:37.931Z,99663.56
2023-03-16T15:20:08.462Z,99657.66
2023-03-16T15:22:39.981Z,99668.91
2023-03-16T15:25:26.898Z,99658.53
2023-03-16T15:27:55.833Z,99661.06
2023-03-16T15:30:28.753Z,99647.28
2023-03-16T15:32:58.874Z,99647.28
2023-03-16T15:35:28.045Z,99652.47
2023-03-16T15:37:56.868Z,99641.16
2023-03-16T15:40:28.210Z,99641.97
2023-03-16T15:42:56.749Z,99647.16
2023-03-16T15:45:25.688Z,99644.53
2023-03-16T15:47:55.251Z,99649.56
2023-03-16T15:50:25.918Z,99642.63
2023-03-16T15:52:59.738Z,99647.81
2023-03-16T15:55:36.590Z,99638.28
2023-03-16T15:58:06.218Z,99633.03
2023-03-16T16:00:37.466Z,99627.88
2023-03-16T16:03:08.092Z,99616.50
2023-03-16T16:05:37.927Z,99619.91
2023-03-16T16:08:07.290Z,99625.03
2023-03-16T16:10:36.375Z,99631.84
2023-03-16T16:13:05.581Z,99624.94
2023-03-16T16:15:37.612Z,99610.22
2023-03-16T16:18:28.269Z,99625.75
2023-03-16T16:21:01.364Z,99615.25
2023-03-16T16:23:31.207Z,99602.25
2023-03-16T16:26:04.495Z,99604.72
2023-03-16T16:28:34.226Z,99600.19
2023-03-16T16:31:03.028Z,99597.50
2023-03-16T16:33:33.551Z,99583.59
2023-03-16T16:36:08.775Z,99588.72
2023-03-16T16:38:37.283Z,99587.72
2023-03-16T16:41:10.215Z,99586.78
2023-03-16T16:43:42.156Z,99586.66
2023-03-16T16:46:16.490Z,99591.78
2023-03-16T16:48:47.541Z,99606.34
2023-03-16T16:51:21.681Z,99609.72
2023-03-16T16:53:51.904Z,99598.41
2023-03-16T16:56:27.801Z,99607.88
2023-03-16T16:58:58.162Z,99610.38
2023-03-16T17:01:29.928Z,99598.31
2023-03-16T17:03:58.531Z,99608.50
2023-03-16T17:06:29.118Z,99603.22
2023-03-16T17:08:57.734Z,99606.56
2023-03-16T17:11:30.049Z,99609.94
2023-03-16T17:14:02.192Z,99603.63
2023-03-16T17:16:32.875Z,99603.56
2023-03-16T17:19:01.459Z,99601.75
2023-03-16T17:21:32.818Z,99604.25
2023-03-16T17:24:03.073Z,99611.97
2023-03-16T17:26:34.571Z,99605.84
2023-03-16T17:29:06.956Z,99606.63
2023-03-16T17:31:38.332Z,99603.97
2023-03-16T17:34:18.064Z,99608.19
2023-03-16T17:36:49.284Z,99608.94
2023-03-16T17:39:20.927Z,99607.13
2023-03-16T17:41:50.786Z,99597.50
2023-03-16T17:44:21.511Z,99606.94
2023-03-16T17:46:51.332Z,99596.44
2023-03-16T17:49:20.674Z,99594.72
2023-03-16T17:51:50.745Z,99589.44
2023-03-16T17:54:19.283Z,99597.06
2023-03-16T17:56:51.680Z,99600.50
2023-03-16T17:59:23.353Z,99599.53
2023-03-16T18:01:52.261Z,99598.66
2023-03-16T18:04:23.401Z,99606.34
2023-03-16T18:06:54.330Z,99601.94
2023-03-16T18:09:23.244Z,99609.63
2023-03-16T18:11:52.509Z,99609.56
2023-03-16T18:14:26.676Z,99617.22
2023-03-16T18:16:55.715Z,99605.16
2023-03-16T18:19:26.816Z,99599.75
2023-03-16T18:21:57.357Z,99599.75
2023-03-16T18:24:28.193Z,99601.41
2023-03-16T18:26:56.678Z,99591.00
2023-03-16T18:29:25.119Z,99602.16
2023-03-16T18:31:58.211Z,99605.56
2023-03-16T18:34:32.458Z,99597.81
2023-03-16T18:37:06.239Z,99598.66
2023-03-16T18:39:35.075Z,99596.00
2023-03-16T18:42:04.371Z,99609.72
2023-03-16T18:44:33.730Z,99607.06
2023-03-16T18:47:04.996Z,99598.44
2023-03-16T18:49:36.521Z,99586.28
2023-03-16T18:52:19.272Z,99594.84
2023-03-16T18:54:48.363Z,99586.13
2023-03-16T18:57:20.105Z,99590.38
2023-03-16T18:59:49.338Z,99583.41
2023-03-16T19:02:30.653Z,99575.66
2023-03-16T19:05:01.926Z,99576.47
2023-03-16T19:07:35.547Z,99583.41
2023-03-16T19:10:13.580Z,99582.53
2023-03-16T19:12:44.771Z,99589.41
2023-03-16T19:15:23.413Z,99588.59
2023-03-16T19:17:53.222Z,99581.56
2023-03-16T19:20:25.970Z,99588.44
2023-03-16T19:23:02.379Z,99592.81
2023-03-16T19:25:36.114Z,99581.66
2023-03-16T19:28:05.747Z,99585.84
2023-03-16T19:30:35.812Z,99585.84
2023-03-16T19:33:04.486Z,99585.81
2023-03-16T19:35:50.317Z,99582.34
2023-03-16T19:38:21.608Z,99583.09
2023-03-16T19:40:54.608Z,99577.88
2023-03-16T19:43:26.741Z,99582.16
2023-03-16T19:45:56.504Z,99577.81
2023-03-16T19:48:32.816Z,99575.22
2023-03-16T19:51:03.105Z,99583.84
2023-03-16T19:53:33.508Z,99582.16
2023-03-16T19:56:05.580Z,99585.63
2023-03-16T19:58:38.484Z,99586.47
2023-03-16T20:01:08.459Z,99588.13
2023-03-16T20:03:38.808Z,99578.53
2023-03-16T20:06:10.059Z,99575.88
2023-03-16T20:08:40.078Z,99579.31
2023-03-16T20:11:15.845Z,99565.50
2023-03-16T20:13:44.771Z,99564.69
2023-03-16T20:16:21.189Z,99564.63
2023-03-16T20:18:54.204Z,99561.97
2023-03-16T20:21:28.405Z,99557.59
2023-03-16T20:23:58.793Z,99551.50
2023-03-16T20:26:31.723Z,99558.41
2023-03-16T20:29:02.784Z,99551.50
2023-03-16T20:31:34.741Z,99547.16
2023-03-16T20:34:03.378Z,99541.09
2023-03-16T20:36:32.068Z,99529.94
2023-03-16T20:39:02.218Z,99529.94
2023-03-16T20:41:32.943Z,99514.38
2023-03-16T20:44:03.158Z,99516.97
2023-03-16T20:46:34.393Z,99519.53
2023-03-16T20:49:03.517Z,99522.94
2023-03-16T20:51:32.002Z,99510.84
2023-03-16T20:54:01.938Z,99517.66
2023-03-16T20:56:31.831Z,99513.41
2023-03-16T20:59:00.369Z,99512.50
2023-03-16T21:01:28.843Z,99502.97
2023-03-16T21:03:58.993Z,99501.19
2023-03-16T21:06:32.057Z,99503.78
2023-03-16T21:09:03.542Z,99508.06
2023-03-16T21:11:37.424Z,99502.97
2023-03-16T21:14:08.458Z,99492.63
2023-03-16T21:16:38.671Z,99490.88
2023-03-16T21:19:14.198Z,99482.31
2023-03-16T21:21:43.001Z,99477.06
2023-03-16T21:24:12.803Z,99478.75
2023-03-16T21:26:42.505Z,99481.22
2023-03-16T21:29:20.888Z,99473.47
2023-03-16T21:31:49.624Z,99473.47
2023-03-16T21:34:25.537Z,99470.91
2023-03-16T21:36:54.226Z,99460.56
2023-03-16T21:39:25.341Z,99456.28
2023-03-16T21:41:54.509Z,99460.56
2023-03-16T21:44:22.946Z,99447.66
2023-03-16T21:46:51.661Z,99451.13
2023-03-16T21:49:20.129Z,99449.34
2023-03-16T21:51:50.381Z,99455.41
2023-03-16T21:54:20.406Z,99449.34
2023-03-16T21:56:50.355Z,99438.13
2023-03-16T21:59:19.106Z,99432.09
2023-03-16T22:02:00.700Z,99431.16
2023-03-16T22:04:30.313Z,99437.13
2023-03-16T22:06:58.743Z,99424.22
2023-03-16T22:09:30.316Z,99432.78
2023-03-16T22:12:03.505Z,99445.69
2023-03-16T22:14:32.354Z,99422.44
2023-03-16T22:17:00.808Z,99424.19
2023-03-16T22:19:29.696Z,99416.47
2023-03-16T22:21:58.490Z,99415.59
2023-03-16T22:24:31.397Z,99405.25
2023-03-16T22:27:01.640Z,99398.41
2023-03-16T22:29:36.579Z,99412.19
2023-03-16T22:32:12.334Z,99399.22
2023-03-16T22:34:45.045Z,99411.31
2023-03-16T22:37:18.341Z,99409.59
2023-03-16T22:39:47.362Z,99402.69
2023-03-16T22:42:28.630Z,99387.25
2023-03-16T22:44:57.453Z,99390.59
2023-03-16T22:47:29.302Z,99380.28
2023-03-16T22:49:57.776Z,99394.88
2023-03-16T22:52:31.545Z,99391.53
2023-03-16T22:55:01.988Z,99383.72
2023-03-16T22:57:33.143Z,99375.97
2023-03-16T23:00:11.145Z,99357.88
2023-03-16T23:02:39.743Z,99366.53
2023-03-16T23:05:21.763Z,99364.94
2023-03-16T23:07:50.632Z,99376.03
2023-03-16T23:10:21.667Z,99367.41
2023-03-16T23:12:53.456Z,99372.75
2023-03-16T23:15:26.683Z,99401.22
2023-03-16T23:17:55.389Z,99400.28
2023-03-16T23:20:29.083Z,99389.16
2023-03-16T23:23:00.609Z,99386.59
2023-03-16T23:25:28.987Z,99389.25
2023-03-16T23:28:02.656Z,99376.41
2023-03-16T23:30:32.769Z,99380.75
2023-03-16T23:33:01.614Z,99379.94
2023-03-16T23:35:32.422Z,99382.56
2023-03-16T23:38:01.015Z,99381.66
2023-03-16T23:40:30.484Z,99378.34
2023-03-16T23:43:02.411Z,99387.88
2023-03-16T23:45:35.698Z,99380.94
2023-03-16T23:48:12.379Z,99369.78
2023-03-16T23:50:42.880Z,99368.91
2023-03-16T23:53:17.477Z,99362.91
2023-03-16T23:55:47.432Z,99360.25
2023-03-16T23:58:17.700Z,99366.31
